createdAt,value
2022-08-26T00:01:44.748Z,19.27
2022-08-26T00:04:13.019Z,16.63
2022-08-26T00:06:42.456Z,16.48
2022-08-26T00:09:13.754Z,15.80
2022-08-26T00:11:44.157Z,17.42
2022-08-26T00:14:12.026Z,15.68
2022-08-26T00:16:40.797Z,14.10
2022-08-26T00:19:09.378Z,15.87
2022-08-26T00:21:37.576Z,14.85
2022-08-26T00:24:06.208Z,15.38
2022-08-26T00:26:34.949Z,13.82
2022-08-26T00:29:02.349Z,17.10
2022-08-26T00:31:31.129Z,16.60
2022-08-26T00:33:58.574Z,15.93
2022-08-26T00:36:29.797Z,14.60
2022-08-26T00:38:57.819Z,16.05
2022-08-26T00:41:24.842Z,15.05
2022-08-26T00:43:53.614Z,14.13
2022-08-26T00:46:29.254Z,15.43
2022-08-26T00:49:11.699Z,14.80
2022-08-26T00:51:45.881Z,14.57
2022-08-26T00:54:13.840Z,14.00
2022-08-26T00:56:49.956Z,14.50
2022-08-26T00:59:18.258Z,15.60
2022-08-26T01:01:46.030Z,15.85
2022-08-26T01:04:17.588Z,16.88
2022-08-26T01:06:45.509Z,16.95
2022-08-26T01:09:12.760Z,16.10
2022-08-26T01:11:40.191Z,19.38
2022-08-26T01:14:08.699Z,17.90
2022-08-26T01:16:37.145Z,22.50
2022-08-26T01:19:23.401Z,18.23
2022-08-26T01:21:58.508Z,19.20
2022-08-26T01:24:28.439Z,18.43
2022-08-26T01:27:03.540Z,18.23
2022-08-26T01:29:33.995Z,19.05
2022-08-26T01:32:05.137Z,18.17
2022-08-26T01:34:36.264Z,17.23
2022-08-26T01:37:07.993Z,16.80
2022-08-26T01:39:41.312Z,18.38
2022-08-26T01:42:13.786Z,17.90
2022-08-26T01:45:07.405Z,17.30
2022-08-26T01:47:36.784Z,21.55
2022-08-26T01:50:15.811Z,19.43
2022-08-26T01:52:56.648Z,19.40
2022-08-26T01:55:32.274Z,19.60
2022-08-26T01:58:05.249Z,21.37
2022-08-26T02:00:34.524Z,22.23
2022-08-26T02:03:17.997Z,20.47
2022-08-26T02:05:48.816Z,22.50
2022-08-26T02:08:24.543Z,21.25
2022-08-26T02:10:54.770Z,21.80
2022-08-26T02:13:25.589Z,22.23
2022-08-26T02:15:53.780Z,22.27
2022-08-26T02:18:20.958Z,23.23
2022-08-26T02:20:52.051Z,24.73
2022-08-26T02:23:19.086Z,25.20
2022-08-26T02:25:58.565Z,24.10
2022-08-26T02:28:31.284Z,26.73
2022-08-26T02:30:58.349Z,23.02
2022-08-26T02:33:28.705Z,28.47
2022-08-26T02:35:55.623Z,24.73
2022-08-26T02:38:23.513Z,22.30
2022-08-26T02:40:50.849Z,23.10
2022-08-26T02:43:18.233Z,23.33
2022-08-26T02:45:51.530Z,23.27
2022-08-26T02:48:21.378Z,22.53
2022-08-26T02:50:48.998Z,22.67
2022-08-26T02:53:16.760Z,22.37
2022-08-26T02:55:51.966Z,27.37
2022-08-26T02:58:19.154Z,44.10
2022-08-26T03:00:53.242Z,23.10
2022-08-26T03:03:22.487Z,55.63
2022-08-26T03:05:51.218Z,34.23
2022-08-26T03:08:18.471Z,108.67
2022-08-26T03:10:47.560Z,24.17
2022-08-26T03:13:15.427Z,25.07
2022-08-26T03:15:42.729Z,23.87
2022-08-26T03:18:10.534Z,23.80
2022-08-26T03:20:37.489Z,23.97
2022-08-26T03:23:04.568Z,24.87
2022-08-26T03:25:32.127Z,23.50
2022-08-26T03:27:59.711Z,23.47
2022-08-26T03:30:45.419Z,25.07
2022-08-26T03:33:14.665Z,23.87
2022-08-26T03:35:44.358Z,26.43
2022-08-26T03:38:11.833Z,29.67
2022-08-26T03:40:39.266Z,31.20
2022-08-26T03:43:09.724Z,34.87
2022-08-26T03:45:38.075Z,33.83
2022-08-26T03:48:05.895Z,40.97
2022-08-26T03:50:34.235Z,43.73
2022-08-26T03:53:02.278Z,58.93
2022-08-26T03:55:32.174Z,41.17
2022-08-26T03:58:00.792Z,41.70
2022-08-26T04:00:29.446Z,43.20
2022-08-26T04:02:56.678Z,51.23
2022-08-26T04:05:23.925Z,45.53
2022-08-26T04:07:52.287Z,44.97
2022-08-26T04:10:28.488Z,45.43
2022-08-26T04:13:06.163Z,51.93
2022-08-26T04:15:33.503Z,49.47
2022-08-26T04:18:01.015Z,51.23
2022-08-26T04:20:28.661Z,47.67
2022-08-26T04:22:55.646Z,56.57
2022-08-26T04:25:24.355Z,55.27
2022-08-26T04:27:51.769Z,57.73
2022-08-26T04:30:20.300Z,54.90
2022-08-26T04:32:49.142Z,63.70
2022-08-26T04:35:16.571Z,59.67
2022-08-26T04:37:44.533Z,63.50
2022-08-26T04:40:11.816Z,68.70
2022-08-26T04:42:38.950Z,67.97
2022-08-26T04:45:10.018Z,78.10
2022-08-26T04:47:37.891Z,71.33
2022-08-26T04:50:07.480Z,75.10
2022-08-26T04:52:35.681Z,89.17
2022-08-26T04:55:06.648Z,179.17
2022-08-26T04:57:35.620Z,98.03
2022-08-26T05:00:10.200Z,92.40
2022-08-26T05:02:38.131Z,95.10
2022-08-26T05:05:23.417Z,99.93
2022-08-26T05:07:50.814Z,101.60
2022-08-26T05:10:18.052Z,101.20
2022-08-26T05:12:55.331Z,111.70
2022-08-26T05:15:23.506Z,102.67
2022-08-26T05:17:51.262Z,117.87
2022-08-26T05:20:20.620Z,98.70
2022-08-26T05:22:52.672Z,103.57
2022-08-26T05:25:20.569Z,107.90
2022-08-26T05:27:48.396Z,106.07
2022-08-26T05:30:15.718Z,99.80
2022-08-26T05:32:43.031Z,103.40
2022-08-26T05:35:10.180Z,106.40
2022-08-26T05:37:40.204Z,102.47
2022-08-26T05:40:08.083Z,95.40
2022-08-26T05:42:35.471Z,100.60
2022-08-26T05:45:02.794Z,99.43
2022-08-26T05:47:30.224Z,131.00
2022-08-26T05:49:57.505Z,109.03
2022-08-26T05:52:25.996Z,99.67
2022-08-26T05:54:53.428Z,94.27
2022-08-26T05:57:20.401Z,85.83
2022-08-26T05:59:50.436Z,89.07
2022-08-26T06:02:17.496Z,88.60
2022-08-26T06:04:44.872Z,84.17
2022-08-26T06:07:12.018Z,79.67
2022-08-26T06:09:40.386Z,80.70
2022-08-26T06:12:07.713Z,77.43
2022-08-26T06:14:36.264Z,73.20
2022-08-26T06:25:22.034Z,73.03
2022-08-26T06:27:51.172Z,67.17
2022-08-26T06:30:18.421Z,69.83
2022-08-26T06:32:45.879Z,66.93
2022-08-26T06:35:13.242Z,64.97
2022-08-26T06:37:43.084Z,60.80
2022-08-26T06:40:22.748Z,73.57
2022-08-26T06:43:03.214Z,62.77
2022-08-26T06:45:31.044Z,68.73
2022-08-26T06:47:58.778Z,61.67
2022-08-26T06:50:25.942Z,62.80
2022-08-26T06:52:54.630Z,68.73
2022-08-26T06:55:26.995Z,63.37
2022-08-26T06:57:54.695Z,63.77
2022-08-26T07:00:21.742Z,65.33
2022-08-26T07:02:49.271Z,58.93
2022-08-26T07:05:17.279Z,60.47
2022-08-26T07:07:44.553Z,62.47
2022-08-26T07:10:11.610Z,63.03
2022-08-26T07:12:39.108Z,56.57
2022-08-26T07:15:08.906Z,109.43
2022-08-26T07:17:36.366Z,61.73
2022-08-26T07:20:07.102Z,59.10
2022-08-26T07:22:35.664Z,59.83
2022-08-26T07:25:07.862Z,64.37
2022-08-26T07:27:37.305Z,62.83
2022-08-26T07:30:08.604Z,62.30
2022-08-26T07:32:37.779Z,63.65
2022-08-26T07:35:06.407Z,60.53
2022-08-26T07:37:35.548Z,62.50
2022-08-26T07:40:06.864Z,72.03
2022-08-26T07:42:34.641Z,59.73
2022-08-26T07:45:02.137Z,57.63
2022-08-26T07:47:29.265Z,65.47
2022-08-26T07:49:57.752Z,52.37
2022-08-26T07:52:28.287Z,269.87
2022-08-26T07:55:00.642Z,58.70
2022-08-26T07:57:29.400Z,58.97
2022-08-26T07:59:57.028Z,54.58
2022-08-26T08:02:28.280Z,57.10
2022-08-26T08:04:56.927Z,53.63
2022-08-26T08:07:38.262Z,55.93
2022-08-26T08:10:17.765Z,56.47
2022-08-26T08:12:46.214Z,47.10
2022-08-26T08:15:15.679Z,56.40
2022-08-26T08:17:43.947Z,54.38
2022-08-26T08:20:12.663Z,53.83
2022-08-26T08:22:40.131Z,48.25
2022-08-26T08:25:10.497Z,49.33
2022-08-26T08:27:39.869Z,51.13
2022-08-26T08:30:08.523Z,46.83
2022-08-26T08:32:38.430Z,45.22
2022-08-26T08:35:10.903Z,46.30
2022-08-26T08:37:38.630Z,47.40
2022-08-26T08:40:08.136Z,50.22
2022-08-26T08:43:04.179Z,51.47
2022-08-26T08:45:44.915Z,50.97
2022-08-26T08:48:22.522Z,44.53
2022-08-26T08:51:02.648Z,54.38
2022-08-26T08:53:37.722Z,46.28
2022-08-26T08:56:12.349Z,51.58
2022-08-26T08:59:08.653Z,44.40
2022-08-26T09:01:44.736Z,40.08
2022-08-26T09:04:31.328Z,43.43
2022-08-26T09:07:02.017Z,40.38
2022-08-26T09:10:01.875Z,39.72
2022-08-26T09:12:32.123Z,42.43
2022-08-26T09:15:11.514Z,41.70
2022-08-26T09:18:00.039Z,36.53
2022-08-26T09:20:48.979Z,37.15
2022-08-26T09:23:18.196Z,34.60
2022-08-26T09:25:48.775Z,36.42
2022-08-26T09:28:19.568Z,33.63
2022-08-26T09:30:58.409Z,77.25
2022-08-26T09:33:30.696Z,38.13
2022-08-26T09:36:41.122Z,35.38
2022-08-26T09:39:28.602Z,35.90
2022-08-26T09:42:04.143Z,36.60
2022-08-26T09:44:32.839Z,40.10
2022-08-26T09:47:10.920Z,35.35
2022-08-26T09:49:41.171Z,30.83
2022-08-26T09:52:17.762Z,34.00
2022-08-26T09:54:46.168Z,34.25
2022-08-26T09:57:26.702Z,34.25
2022-08-26T09:59:54.084Z,37.30
2022-08-26T10:02:33.796Z,47.90
2022-08-26T10:05:09.692Z,34.63
2022-08-26T10:07:45.154Z,34.05
2022-08-26T10:10:26.415Z,36.15
2022-08-26T10:13:12.524Z,33.00
2022-08-26T10:15:52.791Z,34.92
2022-08-26T10:32:03.789Z,40.55
2022-08-26T10:34:32.904Z,63.20
2022-08-26T10:37:15.870Z,37.42
2022-08-26T10:40:07.868Z,32.75
2022-08-26T10:42:45.637Z,81.10
2022-08-26T10:45:19.960Z,44.50
2022-08-26T10:47:56.358Z,29.10
2022-08-26T10:50:38.513Z,72.53
2022-08-26T10:53:11.569Z,27.27
2022-08-26T10:55:52.644Z,35.05
2022-08-26T10:58:38.283Z,28.70
2022-08-26T11:01:45.113Z,28.70
2022-08-26T11:04:48.332Z,26.55
2022-08-26T11:07:36.384Z,26.95
2022-08-26T11:10:08.382Z,28.63
2022-08-26T11:12:38.779Z,29.58
2022-08-26T11:15:14.008Z,29.42
2022-08-26T11:17:46.055Z,47.38
2022-08-26T11:20:35.060Z,27.52
2022-08-26T11:23:28.480Z,24.55
2022-08-26T11:26:32.795Z,22.90
2022-08-26T11:29:03.745Z,21.08
2022-08-26T11:31:31.762Z,23.25
2022-08-26T11:34:08.679Z,19.48
2022-08-26T11:36:58.710Z,20.02
2022-08-26T11:39:36.965Z,18.88
2022-08-26T11:42:42.635Z,20.88
2022-08-26T11:46:02.462Z,29.58
2022-08-26T11:48:31.173Z,20.30
2022-08-26T11:51:02.495Z,18.75
2022-08-26T11:53:33.342Z,22.05
2022-08-26T11:56:04.485Z,21.15
2022-08-26T11:58:32.138Z,20.10
2022-08-26T12:01:09.680Z,16.33
2022-08-26T12:03:44.733Z,15.35
2022-08-26T12:06:15.369Z,19.75
2022-08-26T12:08:44.937Z,15.60
2022-08-26T12:11:21.521Z,12.32
2022-08-26T12:14:02.264Z,15.43
2022-08-26T12:16:32.173Z,22.35
2022-08-26T12:19:00.286Z,15.82
2022-08-26T12:21:31.536Z,77.47
2022-08-26T12:24:07.330Z,53.40
2022-08-26T12:26:36.964Z,15.27
2022-08-26T12:29:27.089Z,19.90
2022-08-26T12:32:17.567Z,17.67
2022-08-26T12:34:47.392Z,37.70
2022-08-26T12:37:15.780Z,24.48
2022-08-26T12:39:45.774Z,32.65
2022-08-26T12:42:12.751Z,25.23
2022-08-26T12:44:58.710Z,25.65
2022-08-26T12:47:43.176Z,70.20
2022-08-26T12:50:30.260Z,15.32
2022-08-26T12:53:05.082Z,26.70
2022-08-26T12:55:32.050Z,20.85
2022-08-26T12:58:13.691Z,29.00
2022-08-26T13:00:47.046Z,17.35
2022-08-26T13:03:35.070Z,15.95
2022-08-26T13:06:23.568Z,55.75
2022-08-26T13:08:57.794Z,38.17
2022-08-26T13:11:35.565Z,16.75
2022-08-26T13:14:07.238Z,22.70
2022-08-26T13:16:36.199Z,16.13
2022-08-26T13:19:12.078Z,41.72
2022-08-26T13:21:47.960Z,20.80
2022-08-26T13:24:19.060Z,40.03
2022-08-26T13:26:49.194Z,25.58
2022-08-26T13:29:16.941Z,22.23
2022-08-26T13:31:45.101Z,21.00
2022-08-26T13:34:15.291Z,19.40
2022-08-26T13:36:45.317Z,34.10
2022-08-26T13:39:12.778Z,17.02
2022-08-26T13:41:40.395Z,18.52
2022-08-26T13:44:13.817Z,15.77
2022-08-26T13:46:41.409Z,24.92
2022-08-26T13:49:08.859Z,12.07
2022-08-26T13:51:36.605Z,11.90
2022-08-26T13:54:05.649Z,17.45
2022-08-26T13:56:33.699Z,14.88
2022-08-26T13:59:01.538Z,16.75
2022-08-26T14:01:30.352Z,14.25
2022-08-26T14:03:57.671Z,25.63
2022-08-26T14:06:25.817Z,16.05
2022-08-26T14:08:52.829Z,43.45
2022-08-26T14:11:21.707Z,14.55
2022-08-26T14:13:48.753Z,25.30
2022-08-26T14:16:24.310Z,31.75
2022-08-26T14:19:03.811Z,27.80
2022-08-26T14:21:33.919Z,22.52
2022-08-26T14:24:01.207Z,19.08
2022-08-26T14:26:29.940Z,33.90
2022-08-26T14:29:01.209Z,31.70
2022-08-26T14:31:31.596Z,21.17
2022-08-26T14:34:01.401Z,12.13
2022-08-26T14:36:28.385Z,18.70
2022-08-26T14:38:58.526Z,12.13
2022-08-26T14:41:26.509Z,14.55
2022-08-26T14:44:00.170Z,31.70
2022-08-26T14:46:30.248Z,14.93
2022-08-26T14:49:01.482Z,20.25
2022-08-26T14:51:29.178Z,23.90
2022-08-26T14:54:14.884Z,35.80
2022-08-26T14:56:52.486Z,18.30
2022-08-26T14:59:25.573Z,21.85
2022-08-26T15:01:54.606Z,13.65
2022-08-26T15:04:23.129Z,29.25
2022-08-26T15:06:51.890Z,22.88
2022-08-26T15:09:19.244Z,15.18
2022-08-26T15:11:47.733Z,11.32
2022-08-26T15:14:19.066Z,13.02
2022-08-26T15:16:50.495Z,10.18
2022-08-26T15:19:18.593Z,15.80
2022-08-26T15:21:47.356Z,14.65
2022-08-26T15:24:17.065Z,21.52
2022-08-26T15:26:45.457Z,36.08
2022-08-26T15:29:13.349Z,20.42
2022-08-26T15:31:40.847Z,10.07
2022-08-26T15:34:13.286Z,11.50
2022-08-26T15:36:45.006Z,11.75
2022-08-26T15:39:13.123Z,11.38
2022-08-26T15:41:40.733Z,25.92
2022-08-26T15:44:11.190Z,36.70
2022-08-26T15:46:38.707Z,12.55
2022-08-26T15:49:06.282Z,32.83
2022-08-26T15:51:45.427Z,9.93
2022-08-26T16:26:40.621Z,18.05
2022-08-26T16:33:00.940Z,23.70
2022-08-26T16:35:30.162Z,14.93
2022-08-26T16:38:00.839Z,10.80
2022-08-26T16:40:32.519Z,13.60
2022-08-26T16:43:09.559Z,15.25
2022-08-26T16:48:24.974Z,17.98
2022-08-26T16:50:57.058Z,10.00
2022-08-26T16:53:39.278Z,20.92
2022-08-26T17:06:27.296Z,34.78
2022-08-26T17:11:39.885Z,13.20
2022-08-26T17:14:10.628Z,19.45
2022-08-26T17:22:06.054Z,14.02
2022-08-26T17:25:18.107Z,8.57
2022-08-26T17:27:51.783Z,12.77
2022-08-26T17:33:39.973Z,10.70
2022-08-26T17:36:08.749Z,12.35
2022-08-26T17:38:43.039Z,9.75
2022-08-26T17:41:14.732Z,24.70
2022-08-26T17:46:27.849Z,8.47
2022-08-26T17:49:07.825Z,7.97
2022-08-26T17:51:37.274Z,26.30
2022-08-26T17:54:06.014Z,22.60
2022-08-26T17:59:15.250Z,12.03
2022-08-26T18:02:00.851Z,11.93
2022-08-26T18:04:31.259Z,9.13
2022-08-26T18:06:59.680Z,10.43
2022-08-26T18:09:47.843Z,11.77
2022-08-26T18:12:18.347Z,10.53
2022-08-26T18:14:59.324Z,20.13
2022-08-26T18:17:27.266Z,17.87
2022-08-26T18:22:46.188Z,15.98
2022-08-26T18:25:17.401Z,14.27
2022-08-26T18:33:13.029Z,13.87
2022-08-26T18:35:42.904Z,17.43
2022-08-26T18:38:11.913Z,14.93
2022-08-26T18:40:41.730Z,15.50
2022-08-26T18:43:09.159Z,9.87
2022-08-26T18:45:36.974Z,10.40
2022-08-26T18:48:04.890Z,9.23
2022-08-26T18:50:31.938Z,11.27
2022-08-26T18:52:59.315Z,10.67
2022-08-26T18:55:26.797Z,9.33
2022-08-26T18:57:54.402Z,10.40
2022-08-26T19:00:21.684Z,10.90
2022-08-26T19:02:52.034Z,21.23
2022-08-26T19:05:22.431Z,10.67
2022-08-26T19:07:49.496Z,8.73
2022-08-26T19:10:16.783Z,10.67
2022-08-26T19:13:19.073Z,10.77
2022-08-26T19:26:37.543Z,10.93
2022-08-26T19:29:05.595Z,9.87
2022-08-26T19:31:36.305Z,9.40
2022-08-26T19:34:05.587Z,17.80
2022-08-26T19:36:33.901Z,35.87
2022-08-26T19:39:04.952Z,10.97
2022-08-26T19:41:38.042Z,18.37
2022-08-26T19:44:09.173Z,13.20
2022-08-26T19:49:05.362Z,14.60
2022-08-26T19:51:45.495Z,12.33
2022-08-26T19:54:12.845Z,10.47
2022-08-26T19:56:50.083Z,12.07
2022-08-26T19:59:17.719Z,5.77
2022-08-26T20:01:45.379Z,8.40
2022-08-26T20:04:13.009Z,9.87
2022-08-26T20:06:43.009Z,11.67
2022-08-26T20:09:11.531Z,9.47
2022-08-26T20:11:38.954Z,11.10
2022-08-26T20:14:05.928Z,9.60
2022-08-26T20:16:33.211Z,8.60
2022-08-26T20:19:18.840Z,13.57
2022-08-26T20:21:46.791Z,10.00
2022-08-26T20:24:17.765Z,14.30
2022-08-26T20:26:45.701Z,16.33
2022-08-26T20:29:17.356Z,20.13
2022-08-26T20:31:45.354Z,12.80
2022-08-26T20:34:14.632Z,13.57
2022-08-26T20:36:42.776Z,25.73
2022-08-26T20:39:11.125Z,13.67
2022-08-26T20:41:39.370Z,11.97
2022-08-26T20:44:07.459Z,12.70
2022-08-26T20:46:37.477Z,18.87
2022-08-26T20:49:05.974Z,12.07
2022-08-26T20:51:37.377Z,18.37
2022-08-26T20:54:06.537Z,36.47
2022-08-26T20:56:34.272Z,23.03
2022-08-26T20:59:03.838Z,22.27
2022-08-26T21:01:34.972Z,29.57
2022-08-26T21:04:12.858Z,13.83
2022-08-26T21:06:42.261Z,14.30
2022-08-26T21:09:15.941Z,12.47
2022-08-26T21:11:44.525Z,12.47
2022-08-26T21:14:15.865Z,12.50
2022-08-26T21:16:44.875Z,15.60
2022-08-26T21:19:14.769Z,11.17
2022-08-26T21:21:43.043Z,31.27
2022-08-26T21:24:13.704Z,15.17
2022-08-26T21:29:28.484Z,15.33
2022-08-26T21:31:55.791Z,18.77
2022-08-26T21:34:23.068Z,13.63
2022-08-26T21:36:50.624Z,16.57
2022-08-26T21:39:18.301Z,12.93
2022-08-26T21:41:46.072Z,17.83
2022-08-26T21:44:15.321Z,13.80
2022-08-26T21:49:25.579Z,17.00
2022-08-26T21:51:53.966Z,13.77
2022-08-26T21:54:24.118Z,14.77
2022-08-26T21:56:52.908Z,13.90
2022-08-26T21:59:20.537Z,13.10
2022-08-26T22:01:47.953Z,11.93
2022-08-26T22:06:59.256Z,11.93
2022-08-26T22:09:29.124Z,9.30
2022-08-26T22:11:57.154Z,7.53
2022-08-26T22:14:30.670Z,10.43
2022-08-26T22:16:59.825Z,11.03
2022-08-26T22:19:27.436Z,8.83
2022-08-26T22:21:55.402Z,8.43
2022-08-26T22:24:24.934Z,8.57
2022-08-26T22:26:52.913Z,7.57
2022-08-26T22:29:21.276Z,12.27
2022-08-26T22:31:48.827Z,10.40
2022-08-26T22:34:18.593Z,10.20
2022-08-26T22:36:48.122Z,8.10
2022-08-26T22:39:18.856Z,9.23
2022-08-26T22:41:48.817Z,9.37
2022-08-26T22:44:17.064Z,11.00
2022-08-26T22:46:46.532Z,8.27
2022-08-26T22:49:18.466Z,9.17
2022-08-26T22:51:47.913Z,10.83
2022-08-26T22:54:17.422Z,8.23
2022-08-26T23:59:35.300Z,8.93
